Time;durP1;ratioP1;P1;durP2;ratioP2;P2;SDS_P1;SDS_P2;PMS_P1;PMS_P2;Temp;Humidity;BMP_temperature;BMP_pressure;BME280_temperature;BME280_humidity;BME280_pressure;Samples;Min_cycle;Max_cycle;Signal;HPM_P1;HPM_P2
2021/03/01 00:01:52;;;;;;;17.20;10.37;;;1.60;99.90;;;;;;5052297;28;20237;-55
2021/03/01 00:04:18;;;;;;;14.10;9.87;;;1.50;99.90;;;;;;5051983;28;20206;-55
2021/03/01 00:06:45;;;;;;;13.30;9.63;;;1.40;99.90;;;;;;5052335;28;20206;-55
2021/03/01 00:09:11;;;;;;;15.13;9.97;;;1.20;99.90;;;;;;5052193;28;20256;-55
2021/03/01 00:11:37;;;;;;;13.60;9.60;;;1.30;99.90;;;;;;5052069;28;20229;-55
2021/03/01 00:14:04;;;;;;;15.40;8.93;;;1.20;99.90;;;;;;5052147;28;20221;-55
2021/03/01 00:16:31;;;;;;;12.40;8.60;;;1.20;99.90;;;;;;5052044;28;20205;-55
2021/03/01 00:18:57;;;;;;;13.70;8.93;;;1.20;99.90;;;;;;5051782;28;20206;-55
2021/03/01 00:21:23;;;;;;;12.77;9.47;;;1.20;99.90;;;;;;5051603;28;20604;-55
2021/03/01 00:23:49;;;;;;;13.73;8.77;;;1.20;99.90;;;;;;5052051;28;20209;-55
2021/03/01 00:26:15;;;;;;;13.13;9.20;;;1.20;99.90;;;;;;5052343;28;20573;-55
2021/03/01 00:28:42;;;;;;;14.80;9.60;;;1.30;99.90;;;;;;5051897;28;20213;-55
2021/03/01 00:31:09;;;;;;;15.47;9.67;;;1.20;99.90;;;;;;5051378;28;20229;-55
2021/03/01 00:33:36;;;;;;;14.07;8.83;;;1.20;99.90;;;;;;5052593;28;20216;-55
2021/03/01 00:36:02;;;;;;;11.87;8.50;;;1.20;99.90;;;;;;5052778;28;20229;-55
2021/03/01 00:38:28;;;;;;;14.67;9.27;;;1.10;99.90;;;;;;5052676;28;20267;-55
2021/03/01 00:40:54;;;;;;;12.07;8.17;;;1.10;99.90;;;;;;5052490;28;20217;-55
2021/03/01 00:43:21;;;;;;;14.00;9.27;;;1.10;99.90;;;;;;5052659;28;20217;-55
2021/03/01 00:45:47;;;;;;;14.13;8.83;;;1.20;99.90;;;;;;5052497;28;20197;-55
2021/03/01 00:48:14;;;;;;;13.10;8.93;;;1.20;99.90;;;;;;5052029;28;20255;-55
2021/03/01 00:50:41;;;;;;;11.90;8.80;;;1.30;99.90;;;;;;5052738;28;20206;-55
2021/03/01 00:53:07;;;;;;;13.53;9.27;;;1.30;99.90;;;;;;5051995;28;20626;-55
2021/03/01 00:55:33;;;;;;;15.97;9.90;;;1.30;99.90;;;;;;5052068;28;20237;-55
2021/03/01 00:57:59;;;;;;;16.83;11.27;;;1.20;99.90;;;;;;5052141;28;20209;-55
2021/03/01 01:00:26;;;;;;;18.03;10.83;;;1.20;99.90;;;;;;5052099;28;20578;-55
2021/03/01 01:02:52;;;;;;;16.87;9.20;;;1.20;99.90;;;;;;5052198;28;20222;-55
2021/03/01 01:05:18;;;;;;;14.43;9.80;;;1.20;99.90;;;;;;5052044;28;20198;-55
2021/03/01 01:07:45;;;;;;;14.90;9.77;;;0.90;99.90;;;;;;5052047;28;20209;-55
2021/03/01 01:10:12;;;;;;;12.77;9.13;;;0.90;99.90;;;;;;5052307;28;20209;-55
2021/03/01 01:12:38;;;;;;;14.30;10.67;;;0.90;99.90;;;;;;5051112;28;20286;-55
2021/03/01 01:15:06;;;;;;;13.33;9.10;;;0.90;99.90;;;;;;5050906;28;20570;-55
2021/03/01 01:17:32;;;;;;;13.37;8.73;;;0.90;99.90;;;;;;5050730;28;20259;-56
2021/03/01 01:19:58;;;;;;;12.07;8.63;;;0.90;99.90;;;;;;5051023;28;20600;-55
2021/03/01 01:22:25;;;;;;;13.57;9.00;;;0.90;99.90;;;;;;5050991;28;20221;-55
2021/03/01 01:24:52;;;;;;;16.83;9.23;;;0.90;99.90;;;;;;5051164;28;20197;-55
2021/03/01 01:27:18;;;;;;;13.77;8.73;;;0.90;99.90;;;;;;5051163;28;20209;-55
2021/03/01 01:29:44;;;;;;;12.03;8.30;;;0.90;99.90;;;;;;5052871;28;20209;-55
2021/03/01 01:32:10;;;;;;;16.20;8.50;;;1.00;99.90;;;;;;5052263;28;20275;-55
2021/03/01 01:34:36;;;;;;;12.10;8.23;;;1.00;99.90;;;;;;5051843;28;20225;-55
2021/03/01 01:37:03;;;;;;;11.70;8.87;;;1.10;99.90;;;;;;5052047;28;20205;-55
2021/03/01 01:39:29;;;;;;;11.57;8.10;;;1.00;99.90;;;;;;5051438;28;20202;-54
2021/03/01 01:41:56;;;;;;;12.43;8.70;;;0.90;99.90;;;;;;5050897;28;20740;-55
2021/03/01 01:44:22;;;;;;;14.03;9.00;;;0.80;99.90;;;;;;5052567;28;20197;-55
2021/03/01 01:46:48;;;;;;;13.83;8.50;;;0.80;99.90;;;;;;5055011;28;20209;-55
2021/03/01 01:49:14;;;;;;;12.33;7.77;;;0.80;99.90;;;;;;5054865;28;20216;-55
2021/03/01 01:51:42;;;;;;;10.63;7.80;;;0.80;99.90;;;;;;5054832;28;20241;-55
2021/03/01 01:54:09;;;;;;;12.17;8.13;;;0.80;99.90;;;;;;5054553;28;20585;-55
2021/03/01 01:56:35;;;;;;;14.80;9.27;;;0.80;99.90;;;;;;5054718;28;20209;-55
2021/03/01 01:59:03;;;;;;;12.97;8.77;;;0.80;99.90;;;;;;5054466;28;20213;-55
2021/03/01 02:01:29;;;;;;;12.47;8.03;;;0.90;99.90;;;;;;5054811;28;20225;-55
2021/03/01 02:04:02;;;;;;;12.83;8.17;;;0.80;99.90;;;;;;5054590;28;20213;-55
2021/03/01 02:06:37;;;;;;;12.47;8.30;;;0.80;99.90;;;;;;5054634;28;20244;-55
2021/03/01 02:09:17;;;;;;;13.40;8.47;;;0.70;99.90;;;;;;5054324;28;20212;-55
2021/03/01 02:11:54;;;;;;;13.30;9.17;;;0.80;99.90;;;;;;5054424;28;20221;-55
2021/03/01 02:14:29;;;;;;;11.67;8.27;;;0.80;99.90;;;;;;5054682;28;20209;-55
2021/03/01 02:16:56;;;;;;;11.63;8.50;;;0.70;99.90;;;;;;5054545;28;20185;-55
2021/03/01 02:19:23;;;;;;;11.50;8.30;;;0.70;99.90;;;;;;5054272;28;20206;-55
2021/03/01 02:21:50;;;;;;;12.03;8.20;;;0.60;99.90;;;;;;5054175;28;20229;-55
2021/03/01 02:24:22;;;;;;;11.53;8.03;;;0.60;99.90;;;;;;5053993;28;20212;-55
2021/03/01 02:26:51;;;;;;;11.20;8.10;;;0.50;99.90;;;;;;5055673;28;20209;-55
2021/03/01 02:29:21;;;;;;;12.37;8.43;;;0.50;99.90;;;;;;5054155;28;20205;-55
2021/03/01 02:31:49;;;;;;;11.57;7.83;;;0.50;99.90;;;;;;5054183;28;20276;-55
2021/03/01 02:34:17;;;;;;;11.30;7.87;;;0.50;99.90;;;;;;5053940;28;20205;-55
2021/03/01 02:36:48;;;;;;;11.87;8.00;;;0.50;99.90;;;;;;5054011;28;20210;-55
2021/03/01 02:39:18;;;;;;;13.90;7.93;;;0.50;99.90;;;;;;5054467;28;20228;-55
2021/03/01 02:41:45;;;;;;;11.63;8.20;;;0.40;99.90;;;;;;5054188;28;20225;-55
2021/03/01 02:44:12;;;;;;;20.43;12.03;;;0.40;99.90;;;;;;5054240;28;20201;-55
2021/03/01 02:46:39;;;;;;;13.50;8.97;;;0.40;99.90;;;;;;5053872;28;20213;-55
2021/03/01 02:49:07;;;;;;;14.30;9.03;;;0.40;99.90;;;;;;5053652;28;20243;-55
2021/03/01 02:51:35;;;;;;;13.60;8.17;;;0.40;99.90;;;;;;5054251;28;20233;-55
2021/03/01 02:54:02;;;;;;;13.43;10.70;;;0.50;99.90;;;;;;5053322;28;20585;-55
2021/03/01 02:56:30;;;;;;;18.73;12.10;;;0.50;99.90;;;;;;5053539;28;20225;-55
2021/03/01 02:58:58;;;;;;;15.70;10.77;;;0.50;99.90;;;;;;5053348;28;20206;-55
2021/03/01 03:01:25;;;;;;;15.47;11.23;;;0.60;99.90;;;;;;5053360;28;20645;-55
2021/03/01 03:03:53;;;;;;;11.80;8.90;;;0.70;99.90;;;;;;5053080;28;20223;-55
2021/03/01 03:06:23;;;;;;;13.90;8.83;;;0.80;99.90;;;;;;5053402;28;20202;-56
2021/03/01 03:08:51;;;;;;;11.87;8.60;;;0.70;99.90;;;;;;5053126;28;20210;-55
2021/03/01 03:11:18;;;;;;;12.70;8.47;;;0.70;99.90;;;;;;5053100;28;20240;-55
2021/03/01 03:13:47;;;;;;;13.43;8.67;;;0.70;99.90;;;;;;5052799;28;20564;-55
2021/03/01 03:16:14;;;;;;;13.03;8.93;;;0.70;99.90;;;;;;5052844;28;20233;-55
2021/03/01 03:18:43;;;;;;;13.43;9.70;;;0.70;99.90;;;;;;5053096;28;20387;-55
2021/03/01 03:21:09;;;;;;;15.07;9.13;;;0.70;99.90;;;;;;5053081;28;20229;-55
2021/03/01 03:23:36;;;;;;;13.97;9.10;;;0.70;99.90;;;;;;5052956;28;20210;-55
2021/03/01 03:26:02;;;;;;;13.27;9.20;;;0.70;99.90;;;;;;5053014;28;20585;-55
2021/03/01 03:28:28;;;;;;;12.93;8.90;;;0.60;99.90;;;;;;5053013;28;20213;-55
2021/03/01 03:30:55;;;;;;;16.40;10.90;;;0.60;99.90;;;;;;5052801;28;20205;-56
2021/03/01 03:33:22;;;;;;;15.77;10.50;;;0.60;99.90;;;;;;5052804;28;20688;-55
2021/03/01 03:35:48;;;;;;;13.43;8.13;;;0.60;99.90;;;;;;5052888;28;20615;-55
2021/03/01 03:38:20;;;;;;;13.50;9.20;;;0.60;99.90;;;;;;5052799;28;20208;-55
2021/03/01 03:40:50;;;;;;;14.73;8.80;;;0.70;99.90;;;;;;5052615;28;20669;-56
2021/03/01 03:43:17;;;;;;;14.40;9.33;;;0.70;99.90;;;;;;5052664;28;20206;-56
2021/03/01 03:45:45;;;;;;;12.83;8.83;;;0.80;99.90;;;;;;5052548;28;20201;-55
2021/03/01 03:48:13;;;;;;;12.60;8.00;;;0.80;99.90;;;;;;5052542;28;20685;-54
2021/03/01 03:50:40;;;;;;;11.83;8.10;;;0.80;99.90;;;;;;5052648;28;20614;-55
2021/03/01 03:53:10;;;;;;;12.70;8.80;;;0.80;99.90;;;;;;5052681;28;20576;-55
2021/03/01 03:55:38;;;;;;;12.63;8.33;;;0.70;99.90;;;;;;5052407;28;20229;-55
2021/03/01 03:58:08;;;;;;;12.57;8.60;;;0.70;99.90;;;;;;5052934;28;20213;-55
2021/03/01 04:00:37;;;;;;;13.37;8.67;;;0.70;99.90;;;;;;5052798;28;20213;-55
2021/03/01 04:03:07;;;;;;;12.50;8.43;;;0.70;99.90;;;;;;5052485;28;20225;-55
2021/03/01 04:05:35;;;;;;;13.30;8.53;;;0.60;99.90;;;;;;5052133;28;20201;-55
2021/03/01 04:08:01;;;;;;;12.80;9.20;;;0.60;99.90;;;;;;5051240;28;20202;-55
2021/03/01 04:10:31;;;;;;;12.97;8.50;;;0.60;99.90;;;;;;5051993;28;20209;-55
2021/03/01 04:13:01;;;;;;;13.47;8.70;;;0.50;99.90;;;;;;5052149;28;20229;-55
2021/03/01 04:15:29;;;;;;;14.77;8.53;;;0.40;99.90;;;;;;5051807;28;20229;-56
2021/03/01 04:17:57;;;;;;;11.87;8.73;;;0.40;99.90;;;;;;5051940;28;20206;-55
2021/03/01 04:20:25;;;;;;;14.17;8.97;;;0.30;99.90;;;;;;5052152;28;20229;-55
2021/03/01 04:22:55;;;;;;;11.93;8.00;;;0.40;99.90;;;;;;5051561;28;20240;-55
2021/03/01 04:25:23;;;;;;;13.37;9.47;;;0.40;99.90;;;;;;5051556;28;20688;-55
2021/03/01 04:27:49;;;;;;;11.37;8.07;;;0.40;99.90;;;;;;5051865;28;20201;-55
2021/03/01 04:30:17;;;;;;;11.80;8.37;;;0.20;99.90;;;;;;5051718;28;20212;-55
2021/03/01 04:32:47;;;;;;;14.50;9.43;;;0.30;99.90;;;;;;5051593;28;20596;-55
2021/03/01 04:35:15;;;;;;;13.07;8.63;;;0.20;99.90;;;;;;5051604;28;20363;-56
2021/03/01 04:37:41;;;;;;;12.57;8.37;;;0.20;99.90;;;;;;5051462;28;20263;-55
2021/03/01 04:40:10;;;;;;;12.47;8.47;;;0.20;99.90;;;;;;5051407;28;20574;-55
2021/03/01 04:42:37;;;;;;;13.80;9.07;;;0.30;99.90;;;;;;5051502;28;20229;-55
2021/03/01 04:45:05;;;;;;;15.83;10.50;;;0.30;99.90;;;;;;5051652;28;20205;-55
2021/03/01 04:47:33;;;;;;;13.87;9.57;;;0.40;99.90;;;;;;5051448;28;20206;-55
2021/03/01 04:50:00;;;;;;;12.73;9.00;;;0.40;99.90;;;;;;5051307;28;20214;-55
2021/03/01 04:52:28;;;;;;;15.67;10.33;;;0.40;99.90;;;;;;5051157;28;20649;-55
2021/03/01 04:54:54;;;;;;;14.80;9.40;;;0.40;99.90;;;;;;5051147;28;20748;-55
2021/03/01 04:57:22;;;;;;;14.40;10.27;;;0.40;99.90;;;;;;5051658;28;20394;-55
2021/03/01 04:59:48;;;;;;;12.50;8.47;;;0.40;99.90;;;;;;5051654;28;20212;-55
2021/03/01 05:02:15;;;;;;;14.17;8.73;;;0.40;99.90;;;;;;5051261;28;20248;-55
2021/03/01 05:04:42;;;;;;;12.93;8.73;;;0.40;99.90;;;;;;5051093;28;20205;-55
2021/03/01 05:07:09;;;;;;;14.53;8.80;;;0.40;99.90;;;;;;5051377;28;20209;-55
2021/03/01 05:09:36;;;;;;;13.43;8.43;;;0.40;99.90;;;;;;5051248;28;20256;-55
2021/03/01 05:12:02;;;;;;;13.70;9.03;;;0.40;99.90;;;;;;5051134;28;20234;-55
2021/03/01 05:14:29;;;;;;;14.23;8.20;;;0.50;99.90;;;;;;5050844;28;20205;-57
2021/03/01 05:16:56;;;;;;;13.13;8.60;;;0.50;99.90;;;;;;5051016;28;20236;-54
2021/03/01 05:19:22;;;;;;;13.20;9.20;;;0.50;99.90;;;;;;5050916;28;20205;-57
2021/03/01 05:21:48;;;;;;;15.10;8.67;;;0.50;99.90;;;;;;5050813;28;20229;-55
2021/03/01 05:24:14;;;;;;;12.93;8.83;;;0.50;99.90;;;;;;5050891;28;20255;-57
2021/03/01 05:26:40;;;;;;;14.47;7.97;;;0.50;99.90;;;;;;5051066;28;20202;-54
2021/03/01 05:29:07;;;;;;;10.93;8.27;;;0.50;99.90;;;;;;5050885;28;20205;-56
2021/03/01 05:31:35;;;;;;;13.23;9.07;;;0.40;99.90;;;;;;5050639;28;20226;-55
2021/03/01 05:34:01;;;;;;;12.23;8.30;;;0.30;99.90;;;;;;5050886;28;20282;-57
2021/03/01 05:36:27;;;;;;;12.77;8.57;;;0.30;99.90;;;;;;5051030;28;20251;-54
2021/03/01 05:38:53;;;;;;;12.43;8.63;;;0.30;99.90;;;;;;5051053;28;20205;-54
2021/03/01 05:41:20;;;;;;;11.50;8.37;;;0.20;99.90;;;;;;5051117;28;20221;-56
2021/03/01 05:43:47;;;;;;;11.87;9.00;;;0.20;99.90;;;;;;5050590;28;20209;-57
2021/03/01 05:46:14;;;;;;;12.63;8.33;;;0.20;99.90;;;;;;5050591;28;20720;-56
2021/03/01 05:48:42;;;;;;;13.90;8.67;;;0.30;99.90;;;;;;5050845;28;20206;-56
2021/03/01 05:51:08;;;;;;;10.67;8.37;;;0.30;99.90;;;;;;5051209;28;20265;-56
2021/03/01 05:53:39;;;;;;;10.87;7.87;;;0.30;99.90;;;;;;5050731;28;20209;-56
2021/03/01 05:56:07;;;;;;;13.93;8.40;;;0.30;99.90;;;;;;5050712;28;20222;-56
2021/03/01 05:58:33;;;;;;;13.77;9.07;;;0.30;99.90;;;;;;5050454;28;20231;-56
2021/03/01 06:01:01;;;;;;;16.27;9.70;;;0.40;99.90;;;;;;5051082;28;20213;-56
2021/03/01 06:03:29;;;;;;;13.83;8.73;;;0.50;99.90;;;;;;5050759;28;20205;-56
2021/03/01 06:05:56;;;;;;;11.03;8.67;;;0.50;99.90;;;;;;5050599;28;20731;-56
2021/03/01 06:08:23;;;;;;;12.20;8.63;;;0.60;99.90;;;;;;5050658;28;20209;-56
2021/03/01 06:10:49;;;;;;;15.17;7.93;;;0.50;99.90;;;;;;5051121;28;20206;-55
2021/03/01 06:13:16;;;;;;;14.27;8.87;;;0.50;99.90;;;;;;5050762;28;20229;-55
2021/03/01 06:15:43;;;;;;;14.53;8.40;;;0.40;99.90;;;;;;5050589;28;20241;-55
2021/03/01 06:18:11;;;;;;;12.63;8.17;;;0.40;99.90;;;;;;5051572;28;20248;-55
2021/03/01 06:20:40;;;;;;;13.97;7.80;;;0.50;99.90;;;;;;5052119;28;20661;-55
2021/03/01 06:23:07;;;;;;;12.93;9.10;;;0.50;99.90;;;;;;5051175;28;20236;-55
2021/03/01 06:25:34;;;;;;;13.20;8.90;;;0.60;99.90;;;;;;5051105;28;20202;-55
2021/03/01 06:28:02;;;;;;;12.77;8.37;;;0.70;99.90;;;;;;5051066;28;20283;-55
2021/03/01 06:30:30;;;;;;;12.37;8.60;;;0.80;99.90;;;;;;5052981;28;20210;-55
2021/03/01 06:33:08;;;;;;;13.87;8.53;;;0.70;99.90;;;;;;5054467;28;20225;-55
2021/03/01 06:35:38;;;;;;;18.03;9.57;;;0.60;99.90;;;;;;5054076;28;20236;-55
2021/03/01 06:38:29;;;;;;;14.63;9.30;;;0.60;99.90;;;;;;5054233;28;20206;-55
2021/03/01 06:41:16;;;;;;;15.90;9.67;;;0.70;99.90;;;;;;5053834;28;20205;-55
2021/03/01 06:43:57;;;;;;;16.03;9.90;;;0.80;99.90;;;;;;5054057;28;20210;-54
2021/03/01 06:46:25;;;;;;;21.87;10.37;;;0.90;99.90;;;;;;5053957;28;20202;-55
2021/03/01 06:48:51;;;;;;;15.70;10.73;;;0.90;99.90;;;;;;5053488;28;20202;-55
2021/03/01 06:51:18;;;;;;;21.70;12.03;;;1.00;99.90;;;;;;5053794;28;20244;-55
2021/03/01 06:53:57;;;;;;;18.90;11.27;;;1.40;99.90;;;;;;5055127;28;20608;-55
2021/03/01 06:56:36;;;;;;;18.43;11.23;;;2.50;99.90;;;;;;5056350;28;20221;-55
2021/03/01 06:59:09;;;;;;;15.03;10.20;;;4.00;99.90;;;;;;5055475;28;20928;-55
2021/03/01 07:01:43;;;;;;;20.43;10.23;;;5.30;99.90;;;;;;5056621;28;20225;-55
2021/03/01 07:04:09;;;;;;;14.70;9.27;;;6.50;99.90;;;;;;5054053;28;20201;-56
2021/03/01 07:06:36;;;;;;;10.93;8.77;;;7.40;98.70;;;;;;5054163;28;20197;-55
2021/03/01 07:09:03;;;;;;;12.70;8.73;;;8.00;96.60;;;;;;5053847;28;20255;-55
2021/03/01 07:11:31;;;;;;;11.77;8.73;;;8.30;97.00;;;;;;5053782;28;20621;-55
2021/03/01 07:14:09;;;;;;;12.30;9.43;;;8.50;95.30;;;;;;5053402;28;20210;-56
2021/03/01 07:16:37;;;;;;;13.33;8.30;;;9.00;94.70;;;;;;5053411;28;20225;-56
2021/03/01 07:19:05;;;;;;;10.57;8.57;;;9.70;92.80;;;;;;5053327;28;20208;-55
2021/03/01 07:21:31;;;;;;;10.47;8.30;;;10.30;91.20;;;;;;5053316;28;20303;-55
2021/03/01 07:23:59;;;;;;;11.07;8.10;;;11.00;90.00;;;;;;5053346;28;20206;-55
2021/03/01 07:26:27;;;;;;;10.17;7.87;;;11.70;86.60;;;;;;5053601;28;20251;-56
2021/03/01 07:28:56;;;;;;;11.90;7.37;;;12.20;82.80;;;;;;5052977;28;20216;-56
2021/03/01 07:31:23;;;;;;;20.17;11.13;;;12.80;80.40;;;;;;5053176;28;20368;-56
2021/03/01 07:33:49;;;;;;;13.63;8.43;;;13.30;77.30;;;;;;5053090;28;20205;-56
2021/03/01 07:36:17;;;;;;;10.00;8.33;;;13.70;74.50;;;;;;5053141;28;20228;-56
2021/03/01 07:38:44;;;;;;;11.47;7.97;;;14.00;72.90;;;;;;5052755;28;20292;-57
2021/03/01 07:41:10;;;;;;;10.30;7.73;;;14.20;72.00;;;;;;5052511;28;20233;-59
2021/03/01 07:43:41;;;;;;;9.60;8.17;;;13.90;70.90;;;;;;5069847;28;20462;-56
2021/03/01 07:46:08;;;;;;;12.73;8.13;;;12.80;71.40;;;;;;5073065;28;20208;-56
2021/03/01 07:48:39;;;;;;;11.83;8.83;;;11.70;73.80;;;;;;5068115;28;20567;-56
2021/03/01 07:51:05;;;;;;;12.53;9.07;;;10.40;77.20;;;;;;5052253;28;20240;-57
2021/03/01 07:53:52;;;;;;;11.57;8.40;;;9.20;82.10;;;;;;5052458;28;20572;-56
2021/03/01 07:56:42;;;;;;;15.40;8.70;;;8.20;85.90;;;;;;5052462;28;20312;-56
2021/03/01 07:59:10;;;;;;;14.23;9.13;;;7.50;89.40;;;;;;5047431;28;20214;-57
2021/03/01 08:01:38;;;;;;;16.73;8.80;;;7.00;91.20;;;;;;5051877;28;20225;-56
2021/03/01 08:04:05;;;;;;;15.83;8.87;;;6.60;92.50;;;;;;5051181;28;20202;-55
2021/03/01 08:06:54;;;;;;;16.07;8.97;;;6.20;94.00;;;;;;5051803;28;20662;-55
2021/03/01 08:09:42;;;;;;;12.70;9.33;;;6.10;95.00;;;;;;5052067;28;20210;-55
2021/03/01 08:12:09;;;;;;;10.70;7.80;;;6.10;95.30;;;;;;5051247;28;20229;-52
2021/03/01 08:14:56;;;;;;;16.23;11.13;;;6.20;95.30;;;;;;5052157;28;20205;-56
2021/03/01 08:17:33;;;;;;;12.30;8.57;;;6.30;95.40;;;;;;5052080;28;20205;-56
2021/03/01 08:20:16;;;;;;;11.90;8.30;;;6.30;95.40;;;;;;5052347;28;20205;-56
2021/03/01 08:23:16;;;;;;;11.00;8.47;;;6.40;95.50;;;;;;5052427;28;20233;-58
2021/03/01 08:25:51;;;;;;;13.20;8.60;;;6.50;95.60;;;;;;5052379;28;20666;-58
2021/03/01 08:28:48;;;;;;;10.70;8.20;;;6.50;95.80;;;;;;5051850;28;20614;-56
2021/03/01 08:31:23;;;;;;;13.53;8.43;;;6.50;96.10;;;;;;5051915;28;20705;-56
2021/03/01 08:33:49;;;;;;;11.50;8.93;;;6.60;96.20;;;;;;5051772;28;20243;-56
2021/03/01 08:36:25;;;;;;;11.93;8.10;;;6.60;96.30;;;;;;5051748;28;20225;-57
2021/03/01 08:38:54;;;;;;;11.20;8.47;;;6.60;96.30;;;;;;5051997;28;20251;-57
2021/03/01 08:41:43;;;;;;;11.13;8.20;;;6.60;96.50;;;;;;5051506;28;20234;-56
2021/03/01 08:44:20;;;;;;;12.57;8.23;;;6.50;96.90;;;;;;5051482;28;20206;-58
2021/03/01 08:46:48;;;;;;;11.60;8.40;;;6.60;96.90;;;;;;5051552;28;20251;-57
2021/03/01 08:49:23;;;;;;;11.70;9.00;;;6.60;96.90;;;;;;5051282;28;20696;-56
2021/03/01 08:51:50;;;;;;;13.10;8.57;;;6.70;96.90;;;;;;5079511;22;20301;-65
2021/03/01 08:54:26;;;;;;;13.83;8.93;;;6.90;96.60;;;;;;5070809;28;20664;-65
2021/03/01 08:57:01;;;;;;;13.73;8.73;;;7.10;96.40;;;;;;5071416;28;20703;-64
2021/03/01 08:59:27;;;;;;;15.43;8.27;;;7.10;96.50;;;;;;5071259;28;20254;-64
2021/03/01 09:01:54;;;;;;;12.43;8.50;;;7.20;96.80;;;;;;5071737;28;20566;-65
2021/03/01 09:04:21;;;;;;;14.97;9.53;;;7.20;96.70;;;;;;5070947;28;20211;-63
2021/03/01 09:06:47;;;;;;;12.87;8.93;;;7.20;96.80;;;;;;5071175;28;20205;-64
2021/03/01 09:09:13;;;;;;;10.00;8.03;;;7.40;96.70;;;;;;5071168;28;20208;-64
2021/03/01 09:11:39;;;;;;;12.53;8.07;;;7.50;96.30;;;;;;5071190;28;20653;-64
2021/03/01 09:14:07;;;;;;;12.10;8.87;;;7.50;96.30;;;;;;5071555;28;20211;-64
2021/03/01 09:16:35;;;;;;;16.07;8.60;;;7.70;96.10;;;;;;5071064;28;20221;-63
2021/03/01 09:19:04;;;;;;;11.53;8.57;;;7.90;95.90;;;;;;5071105;28;20207;-64
2021/03/01 09:21:34;;;;;;;13.20;8.47;;;8.20;95.50;;;;;;5071189;28;20247;-63
2021/03/01 09:24:00;;;;;;;12.40;8.63;;;8.30;95.30;;;;;;5071123;28;20362;-62
2021/03/01 09:26:28;;;;;;;16.83;8.63;;;8.40;95.10;;;;;;5071153;28;20209;-63
2021/03/01 09:28:56;;;;;;;10.37;7.90;;;8.50;94.70;;;;;;5070548;28;20213;-63
2021/03/01 09:31:23;;;;;;;12.23;8.30;;;8.70;94.50;;;;;;5070431;28;20208;-65
2021/03/01 09:33:50;;;;;;;12.53;8.40;;;8.70;94.20;;;;;;5070645;28;20212;-65
2021/03/01 09:36:17;;;;;;;9.40;7.60;;;8.80;94.20;;;;;;5070483;28;20239;-63
2021/03/01 09:38:50;;;;;;;9.60;7.57;;;8.80;93.90;;;;;;5070579;28;20205;-63
2021/03/01 09:41:17;;;;;;;9.50;7.43;;;8.90;93.70;;;;;;5070747;28;20216;-63
2021/03/01 09:43:43;;;;;;;10.77;7.50;;;9.00;93.10;;;;;;5070563;28;20209;-62
2021/03/01 09:46:10;;;;;;;8.73;7.00;;;9.10;92.80;;;;;;5070613;28;20729;-65
2021/03/01 09:48:42;;;;;;;10.20;8.07;;;9.20;92.70;;;;;;5070605;28;20295;-64
2021/03/01 09:51:09;;;;;;;11.33;8.37;;;9.30;92.80;;;;;;5070346;28;20547;-64
2021/03/01 09:53:37;;;;;;;9.53;7.30;;;9.40;92.40;;;;;;5070414;28;20208;-64
2021/03/01 09:56:04;;;;;;;13.30;7.83;;;9.50;92.30;;;;;;5070397;28;20236;-64
2021/03/01 09:58:32;;;;;;;11.43;7.50;;;9.50;92.10;;;;;;5070312;28;20213;-67
2021/03/01 10:01:07;;;;;;;10.27;7.37;;;9.60;92.20;;;;;;5070618;28;20208;-64
2021/03/01 10:03:41;;;;;;;10.20;7.80;;;9.70;91.90;;;;;;5070415;28;20254;-64
2021/03/01 10:06:09;;;;;;;12.20;7.53;;;9.90;91.70;;;;;;5073451;28;20212;-64
2021/03/01 10:08:36;;;;;;;9.73;6.90;;;10.00;91.20;;;;;;5074161;28;20668;-64
2021/03/01 10:11:04;;;;;;;9.80;6.40;;;10.20;90.40;;;;;;5074310;28;20221;-64
2021/03/01 10:13:33;;;;;;;8.60;5.70;;;10.20;89.00;;;;;;5074428;28;20201;-64
2021/03/01 10:16:00;;;;;;;8.53;6.43;;;10.30;87.50;;;;;;5074356;28;20274;-62
2021/03/01 10:18:29;;;;;;;7.17;5.47;;;10.50;85.80;;;;;;5074278;28;20209;-62
2021/03/01 10:21:01;;;;;;;7.97;5.53;;;10.60;84.00;;;;;;5074043;28;20201;-62
2021/03/01 10:23:33;;;;;;;7.43;5.80;;;10.80;82.70;;;;;;5073517;28;20235;-63
2021/03/01 10:26:17;;;;;;;6.03;5.17;;;11.00;82.70;;;;;;5074129;28;20684;-63
2021/03/01 10:28:50;;;;;;;7.40;5.60;;;11.20;80.80;;;;;;5074561;28;20245;-63
2021/03/01 10:31:17;;;;;;;7.67;5.67;;;11.30;80.80;;;;;;5074154;28;20696;-63
2021/03/01 10:33:54;;;;;;;6.80;5.43;;;11.70;79.90;;;;;;5073784;28;20209;-63
2021/03/01 10:36:21;;;;;;;9.73;5.00;;;11.90;79.00;;;;;;5073850;28;20220;-63
2021/03/01 10:38:52;;;;;;;7.90;5.33;;;12.10;77.60;;;;;;5074306;28;20357;-63
2021/03/01 10:41:21;;;;;;;6.73;5.83;;;12.30;76.00;;;;;;5073814;28;20278;-63
2021/03/01 10:43:56;;;;;;;8.07;5.97;;;12.50;74.90;;;;;;5074387;28;20231;-63
2021/03/01 10:46:34;;;;;;;6.87;5.63;;;12.60;73.80;;;;;;5073642;28;20254;-62
2021/03/01 10:49:01;;;;;;;7.40;5.40;;;12.70;71.60;;;;;;5073781;28;20668;-62
2021/03/01 10:51:27;;;;;;;8.00;5.30;;;12.70;72.40;;;;;;5073528;28;20237;-63
2021/03/01 10:53:54;;;;;;;6.43;5.40;;;12.80;71.20;;;;;;5073676;28;20209;-63
2021/03/01 10:56:21;;;;;;;8.73;5.70;;;12.90;70.20;;;;;;5073712;28;20221;-63
2021/03/01 10:58:49;;;;;;;6.17;5.33;;;12.80;70.50;;;;;;5073200;28;20213;-64
2021/03/01 11:01:15;;;;;;;6.80;5.23;;;12.90;69.80;;;;;;5073420;28;20266;-63
2021/03/01 11:03:43;;;;;;;6.77;5.53;;;13.00;69.10;;;;;;5073268;28;20201;-63
2021/03/01 11:06:09;;;;;;;6.57;5.73;;;13.20;69.30;;;;;;5073200;28;20205;-63
2021/03/01 11:08:35;;;;;;;6.37;5.73;;;13.20;70.10;;;;;;5073006;28;20231;-63
2021/03/01 11:11:02;;;;;;;8.27;5.73;;;13.40;68.80;;;;;;5073209;28;20229;-66
2021/03/01 11:13:29;;;;;;;8.63;5.63;;;13.40;68.10;;;;;;5072846;28;20236;-63
2021/03/01 11:15:55;;;;;;;9.40;5.73;;;13.60;67.60;;;;;;5072321;28;20224;-63
2021/03/01 11:18:21;;;;;;;7.63;5.83;;;13.70;67.30;;;;;;5072837;28;20205;-63
2021/03/01 11:20:47;;;;;;;9.40;6.07;;;13.80;66.30;;;;;;5073078;28;20227;-63
2021/03/01 11:23:13;;;;;;;7.37;5.57;;;13.70;67.30;;;;;;5072819;28;20220;-63
2021/03/01 11:25:40;;;;;;;7.53;5.73;;;13.80;67.30;;;;;;5072765;28;20578;-63
2021/03/01 11:28:09;;;;;;;8.93;5.50;;;14.00;66.60;;;;;;5072572;28;20213;-63
2021/03/01 11:30:36;;;;;;;7.13;6.07;;;14.20;66.10;;;;;;5072923;28;20299;-63
2021/03/01 11:33:04;;;;;;;9.90;7.07;;;14.40;65.10;;;;;;5073044;28;20224;-63
2021/03/01 11:35:30;;;;;;;7.33;5.37;;;14.50;63.80;;;;;;5072869;28;20282;-63
2021/03/01 11:37:56;;;;;;;7.73;4.93;;;14.40;63.10;;;;;;5072989;28;20205;-63
2021/03/01 11:40:23;;;;;;;6.80;5.60;;;14.50;63.00;;;;;;5072981;28;20212;-63
2021/03/01 11:42:49;;;;;;;8.60;5.30;;;14.60;62.40;;;;;;5073030;28;20248;-63
2021/03/01 11:45:15;;;;;;;6.80;5.73;;;14.70;61.80;;;;;;5072632;28;20243;-63
2021/03/01 11:47:42;;;;;;;6.53;5.37;;;14.90;61.90;;;;;;5072514;28;20577;-63
2021/03/01 11:50:10;;;;;;;9.60;5.40;;;15.00;59.90;;;;;;5072648;28;20201;-63
2021/03/01 11:52:36;;;;;;;5.50;4.60;;;15.00;60.20;;;;;;5072427;28;20651;-63
2021/03/01 11:55:04;;;;;;;5.83;4.73;;;15.20;60.40;;;;;;5072057;28;20205;-63
2021/03/01 11:57:30;;;;;;;6.67;5.20;;;15.20;58.90;;;;;;5071969;28;20452;-63
2021/03/01 11:59:56;;;;;;;7.20;5.03;;;15.20;58.40;;;;;;5070284;28;20455;-63
2021/03/01 12:02:23;;;;;;;6.67;5.00;;;15.20;57.90;;;;;;5071847;28;20286;-63
2021/03/01 12:04:50;;;;;;;7.50;5.10;;;15.10;57.60;;;;;;5072083;28;20205;-63
2021/03/01 12:07:16;;;;;;;4.80;4.17;;;15.00;58.00;;;;;;5072198;28;20201;-63
2021/03/01 12:09:42;;;;;;;6.97;4.30;;;15.00;56.60;;;;;;5072133;28;20205;-64
2021/03/01 12:12:08;;;;;;;5.83;5.07;;;15.20;56.90;;;;;;5072662;28;20232;-66
2021/03/01 12:14:34;;;;;;;6.63;5.27;;;15.30;57.50;;;;;;5072280;28;20209;-66
2021/03/01 12:17:01;;;;;;;5.67;5.03;;;15.50;58.60;;;;;;5072177;28;20294;-64
2021/03/01 12:19:27;;;;;;;5.17;4.50;;;15.70;58.50;;;;;;5072291;28;20213;-64
2021/03/01 12:21:54;;;;;;;6.83;4.27;;;15.80;56.20;;;;;;5072357;28;20221;-64
2021/03/01 12:24:20;;;;;;;4.47;3.80;;;15.70;55.50;;;;;;5072256;28;20233;-64
2021/03/01 12:26:47;;;;;;;4.03;3.63;;;15.70;54.90;;;;;;5071757;28;20201;-65
2021/03/01 12:29:13;;;;;;;4.40;4.00;;;15.70;54.30;;;;;;5071445;28;20568;-64
2021/03/01 12:31:39;;;;;;;6.83;4.07;;;15.60;54.20;;;;;;5071782;28;20224;-64
2021/03/01 12:34:05;;;;;;;5.20;4.17;;;15.60;54.60;;;;;;5071787;28;20209;-64
2021/03/01 12:36:31;;;;;;;4.87;3.80;;;15.50;54.30;;;;;;5071943;28;20225;-65
2021/03/01 12:38:58;;;;;;;5.80;4.17;;;15.50;53.40;;;;;;5071713;28;20212;-65
2021/03/01 12:41:25;;;;;;;6.20;4.33;;;15.60;54.20;;;;;;5071707;28;20229;-64
2021/03/01 12:43:51;;;;;;;5.27;4.00;;;15.80;53.60;;;;;;5071569;28;20207;-64
2021/03/01 12:46:17;;;;;;;7.17;3.80;;;15.90;53.10;;;;;;5071239;28;20687;-64
2021/03/01 12:48:43;;;;;;;4.73;3.53;;;15.80;52.70;;;;;;5071437;28;20209;-65
2021/03/01 12:51:09;;;;;;;4.83;3.40;;;15.70;53.10;;;;;;5071690;28;20205;-64
2021/03/01 12:53:36;;;;;;;4.00;3.10;;;15.70;52.70;;;;;;5071615;28;20212;-64